Time;durP1;ratioP1;P1;durP2;ratioP2;P2;SDS_P1;SDS_P2;PMS_P1;PMS_P2;Temp;Humidity;BMP_temperature;BMP_pressure;BME280_temperature;BME280_humidity;BME280_pressure;Samples;Min_cycle;Max_cycle;Signal;HPM_P1;HPM_P2
2022/04/14 00:06:43;;;;;;;;;;;;;;;23.18;42.77;100861.28;20525509;28;97621;-79
2022/04/14 00:16:44;;;;;;;;;;;;;;;23.17;42.71;100874.63;20535264;27;96918;-79
2022/04/14 00:26:44;;;;;;;;;;;;;;;23.14;42.92;100865.09;20529310;27;97463;-79
2022/04/14 00:36:45;;;;;;;;;;;;;;;23.12;42.74;100866.16;20520873;28;97416;-78
2022/04/14 00:46:45;;;;;;;;;;;;;;;23.10;42.63;100863.63;20516207;28;97294;-79
2022/04/14 00:56:46;;;;;;;;;;;;;;;23.08;42.78;100859.44;20515598;28;98098;-79
2022/04/14 01:06:46;;;;;;;;;;;;;;;23.03;42.80;100854.50;20508706;27;97249;-79
2022/04/14 01:16:47;;;;;;;;;;;;;;;23.01;42.54;100859.91;20524391;28;97628;-79
2022/04/14 01:26:47;;;;;;;;;;;;;;;22.98;42.68;100846.94;20516085;28;101734;-78
2022/04/14 01:36:48;;;;;;;;;;;;;;;22.97;42.35;100853.22;20518144;27;100331;-80
2022/04/14 01:46:48;;;;;;;;;;;;;;;22.94;42.54;100853.44;20524006;27;97670;-79
2022/04/14 01:56:49;;;;;;;;;;;;;;;22.93;42.88;100856.19;20518641;27;97491;-78
2022/04/14 02:06:56;;;;;;;;;;;;;;;22.89;42.77;100855.59;20520876;27;98211;-79
2022/04/14 02:16:57;;;;;;;;;;;;;;;22.89;42.49;100858.25;20513101;27;97370;-79
2022/04/14 02:26:58;;;;;;;;;;;;;;;22.86;42.48;100851.41;20514211;27;97155;-79
2022/04/14 02:37:00;;;;;;;;;;;;;;;22.84;42.62;100855.94;20514792;27;107002;-78
2022/04/14 02:47:00;;;;;;;;;;;;;;;22.83;42.43;100861.34;20513682;27;97040;-79
2022/04/14 02:57:01;;;;;;;;;;;;;;;22.79;42.40;100855.47;20515882;27;97072;-78
2022/04/14 03:07:01;;;;;;;;;;;;;;;22.74;42.75;100857.63;20513993;27;97386;-79
2022/04/14 03:17:02;;;;;;;;;;;;;;;22.72;42.54;100848.97;20515016;28;97679;-79
2022/04/14 03:27:02;;;;;;;;;;;;;;;22.70;42.65;100853.53;20511535;28;97116;-78
2022/04/14 03:37:03;;;;;;;;;;;;;;;22.69;42.71;100863.25;20522831;28;97288;-78
2022/04/14 03:47:04;;;;;;;;;;;;;;;22.66;42.54;100866.13;20569558;27;97369;-79
2022/04/14 03:57:05;;;;;;;;;;;;;;;22.63;42.69;100871.63;20599541;28;98449;-77
2022/04/14 04:07:05;;;;;;;;;;;;;;;22.61;42.63;100880.63;20615705;28;96870;-79
2022/04/14 04:17:06;;;;;;;;;;;;;;;22.58;42.46;100876.41;20612884;28;96966;-78
2022/04/14 04:27:06;;;;;;;;;;;;;;;22.58;42.56;100888.78;20603146;28;99950;-79
2022/04/14 04:37:07;;;;;;;;;;;;;;;22.61;43.00;100886.75;20600355;27;97005;-79
2022/04/14 04:47:07;;;;;;;;;;;;;;;22.69;43.26;100894.94;20596285;28;98123;-79
2022/04/14 04:57:08;;;;;;;;;;;;;;;22.80;43.31;100914.38;20587830;28;97966;-79
2022/04/14 05:07:08;;;;;;;;;;;;;;;21.88;36.65;100920.22;20585962;28;101646;-77
2022/04/14 05:17:12;;;;;;;;;;;;;;;22.02;35.81;100921.84;20589111;27;97645;-79
2022/04/14 05:27:12;;;;;;;;;;;;;;;22.15;36.76;100924.44;20606699;27;98416;-79
2022/04/14 05:37:13;;;;;;;;;;;;;;;22.30;38.89;100928.59;20602864;27;98079;-79
2022/04/14 05:47:13;;;;;;;;;;;;;;;22.38;40.04;100934.16;20601044;27;97007;-78
2022/04/14 05:57:15;;;;;;;;;;;;;;;22.43;40.07;100936.47;20592529;28;98927;-77
2022/04/14 06:07:15;;;;;;;;;;;;;;;22.50;40.50;100940.34;20602511;27;96937;-79
2022/04/14 06:17:15;;;;;;;;;;;;;;;22.53;40.79;100933.97;20586517;28;97268;-80
2022/04/14 06:27:16;;;;;;;;;;;;;;;22.56;40.83;100928.50;20518655;28;97946;-80
2022/04/14 06:37:16;;;;;;;;;;;;;;;22.58;40.76;100944.19;20511930;28;97536;-80
2022/04/14 06:47:17;;;;;;;;;;;;;;;22.59;41.21;100935.34;20515041;28;98365;-80
2022/04/14 06:57:18;;;;;;;;;;;;;;;22.66;42.19;100931.28;20542282;28;98465;-82
2022/04/14 07:07:19;;;;;;;;;;;;;;;22.69;43.67;100929.25;20635432;27;97892;-81
2022/04/14 07:22:19;;;;;;;13.27;5.15;;;;;;;22.83;42.61;100928.19;20547367;27;96830;-76
2022/04/14 07:32:19;;;;;;;10.33;4.50;;;;;;;22.86;43.04;100924.47;20575155;28;97469;-80
2022/04/14 07:42:31;;;;;;;11.68;5.15;;;;;;;22.83;42.92;100920.28;20561677;27;97665;-81
2022/04/14 07:52:52;;;;;;;10.10;4.90;;;;;;;22.83;43.14;100916.81;20567046;27;97042;-82
2022/04/14 08:02:56;;;;;;;11.15;5.28;;;;;;;22.85;43.09;100920.16;20560787;28;97168;-78
2022/04/14 08:12:57;;;;;;;9.57;4.65;;;;;;;22.80;43.16;100923.16;20566379;27;97447;-81
2022/04/14 08:22:59;;;;;;;9.98;4.13;;;;;;;22.82;42.74;100918.59;20551623;28;97355;-78
2022/04/14 08:33:05;;;;;;;10.68;4.45;;;;;;;22.88;43.32;100929.66;20484292;28;97761;-76
2022/04/14 08:43:07;;;;;;;12.48;4.75;;;;;;;22.90;43.70;100922.44;20467258;28;97346;-78
2022/04/14 08:53:09;;;;;;;13.45;3.83;;;;;;;22.85;44.06;100928.06;20471716;28;100326;-77
2022/04/14 09:03:09;;;;;;;7.30;3.90;;;;;;;22.85;43.54;100921.00;20475974;28;97797;-77
2022/04/14 09:13:13;;;;;;;11.77;3.85;;;;;;;22.84;43.18;100907.94;20477052;28;97347;-76
2022/04/14 09:23:20;;;;;;;10.48;3.95;;;;;;;22.92;43.71;100905.53;20494072;28;96858;-79
2022/04/14 09:33:21;;;;;;;6.82;3.70;;;;;;;22.90;43.55;100904.81;20490139;28;97779;-79
2022/04/14 09:43:26;;;;;;;6.93;3.60;;;;;;;22.93;43.33;100894.00;20497737;28;97169;-77
2022/04/14 09:53:30;;;;;;;8.25;3.30;;;;;;;22.93;43.33;100895.81;20488962;28;96851;-77
2022/04/14 10:03:31;;;;;;;9.48;3.67;;;;;;;22.97;43.30;100884.03;20433210;28;100982;-77
2022/04/14 10:13:39;;;;;;;6.57;3.20;;;;;;;23.05;42.71;100872.91;20408153;28;100672;-78
2022/04/14 10:23:41;;;;;;;7.07;3.40;;;;;;;23.11;42.71;100864.50;20469490;28;102101;-77
2022/04/14 10:33:42;;;;;;;9.70;3.27;;;;;;;23.09;42.31;100855.84;20474915;28;98383;-77
2022/04/14 10:43:44;;;;;;;6.57;2.88;;;;;;;23.21;42.08;100851.44;20477615;28;97120;-76
2022/04/14 10:54:06;;;;;;;;;;;;;;;23.23;37.43;100842.44;20475383;28;100759;-77
2022/04/14 11:04:24;;;;;;;9.50;3.07;;;;;;;23.27;39.78;100838.56;20448669;28;97437;-77
2022/04/14 11:14:25;;;;;;;9.20;2.42;;;;;;;23.37;40.43;100836.03;20470855;28;97372;-77
2022/04/14 11:24:44;;;;;;;8.00;2.67;;;;;;;23.48;40.66;100816.69;20475403;28;97253;-78
2022/04/14 11:34:44;;;;;;;6.05;3.10;;;;;;;23.69;39.35;100818.56;20473885;28;96925;-75
2022/04/14 11:44:46;;;;;;;6.20;2.70;;;;;;;23.81;37.86;100801.69;20471495;28;98174;-76
2022/04/14 11:54:46;;;;;;;7.33;2.63;;;;;;;23.90;37.49;100794.78;20461236;28;100375;-74
2022/04/14 12:04:52;;;;;;;5.13;2.45;;;;;;;23.96;36.91;100791.66;20481530;28;101152;-75
2022/04/14 12:14:52;;;;;;;7.63;2.58;;;;;;;24.03;37.12;100771.66;20494852;28;97498;-74
2022/04/14 12:24:55;;;;;;;5.07;2.30;;;;;;;24.10;36.04;100740.25;20486921;28;97023;-74
2022/04/14 12:34:56;;;;;;;5.28;2.30;;;;;;;24.18;35.67;100732.53;20489154;28;97048;-74
2022/04/14 12:45:11;;;;;;;7.50;2.40;;;;;;;24.25;35.06;100725.72;20483845;28;96890;-74
2022/04/14 12:55:23;;;;;;;4.20;2.17;;;;;;;24.32;34.31;100706.69;20487155;28;97633;-75
2022/04/14 13:05:26;;;;;;;;;;;;;;;24.39;33.51;100692.78;20483898;28;98240;-76
2022/04/14 13:15:28;;;;;;;6.78;2.08;;;;;;;24.43;32.92;100685.41;20485370;28;97773;-75
2022/04/14 13:25:29;;;;;;;3.83;2.13;;;;;;;24.51;32.22;100674.16;20487473;28;97568;-76
2022/04/14 13:35:30;;;;;;;3.88;1.85;;;;;;;24.54;30.64;100663.31;20478824;28;97337;-75
2022/04/14 13:45:30;;;;;;;2.87;1.80;;;;;;;24.56;30.85;100661.34;20483828;28;97707;-76
2022/04/14 13:55:34;;;;;;;2.10;1.50;;;;;;;24.61;30.57;100657.34;20464099;28;97843;-75
2022/04/14 14:05:35;;;;;;;2.03;1.75;;;;;;;24.67;29.82;100647.19;20480079;28;101794;-75
2022/04/14 14:15:35;;;;;;;3.77;1.83;;;;;;;24.71;30.47;100641.50;20464181;28;98062;-74
2022/04/14 14:25:37;;;;;;;3.90;1.60;;;;;;;24.83;29.72;100636.06;20475729;28;100538;-75
2022/04/14 14:35:37;;;;;;;7.47;2.17;;;;;;;24.89;29.94;100624.94;20459585;28;96994;-74
2022/04/14 14:45:39;;;;;;;3.45;1.70;;;;;;;24.89;28.77;100619.63;20448066;28;97964;-74
2022/04/14 14:55:39;;;;;;;6.18;1.70;;;;;;;24.85;23.08;100615.59;20449099;28;99747;-75
2022/04/14 15:05:40;;;;;;;2.70;1.73;;;;;;;25.31;26.07;100613.25;20455394;28;98542;-75
2022/04/14 15:15:46;;;;;;;2.15;1.70;;;;;;;25.76;26.00;100609.16;20457266;28;97871;-75
2022/04/14 15:25:47;;;;;;;3.10;1.73;;;;;;;26.38;26.32;100612.16;20445770;28;99048;-74
2022/04/14 15:35:47;;;;;;;2.83;1.50;;;;;;;26.72;26.51;100587.63;20453568;28;98546;-74
2022/04/14 15:45:48;;;;;;;5.13;1.70;;;;;;;26.86;25.68;100598.75;20479024;28;97493;-74
2022/04/14 15:55:49;;;;;;;3.78;1.70;;;;;;;26.67;26.01;100597.84;20470410;28;99194;-78
2022/04/14 16:05:50;;;;;;;5.45;1.85;;;;;;;26.68;26.11;100584.44;20474565;28;98077;-74
2022/04/14 16:15:51;;;;;;;12.90;2.37;;;;;;;26.53;23.35;100585.94;20480009;28;100830;-75
2022/04/14 16:25:52;;;;;;;12.53;1.90;;;;;;;26.37;26.42;100589.25;20477217;28;100999;-78
2022/04/14 16:35:53;;;;;;;8.80;1.88;;;;;;;25.99;27.37;100583.13;20478404;28;97194;-77
2022/04/14 16:45:53;;;;;;;4.97;2.00;;;;;;;25.66;26.27;100579.97;20473222;28;97685;-76
2022/04/14 16:55:54;;;;;;;5.95;1.75;;;;;;;25.27;24.76;100580.88;20465191;28;99467;-75
2022/04/14 17:05:55;;;;;;;4.80;1.90;;;;;;;25.03;25.27;100594.56;20478712;28;100772;-75
2022/04/14 17:15:55;;;;;;;7.27;1.87;;;;;;;24.89;28.47;100596.66;20463373;28;97623;-76
2022/04/14 17:25:56;;;;;;;2.90;1.52;;;;;;;24.72;24.42;100594.69;20469022;28;97194;-77
2022/04/14 17:35:56;;;;;;;4.75;1.90;;;;;;;24.60;25.28;100604.53;20483831;28;97417;-77
2022/04/14 17:45:57;;;;;;;3.83;2.10;;;;;;;24.51;25.73;100605.31;20484560;28;97891;-76
2022/04/14 17:55:57;;;;;;;3.75;1.75;;;;;;;24.43;26.67;100613.94;20486791;28;100784;-75
2022/04/14 18:05:58;;;;;;;5.10;1.75;;;;;;;24.35;27.00;100616.44;20470555;28;100663;-75
2022/04/14 18:15:58;;;;;;;4.78;2.17;;;;;;;24.29;27.31;100631.03;20479522;28;97198;-75
2022/04/14 18:25:59;;;;;;;4.15;2.15;;;;;;;24.25;27.10;100635.75;20464771;28;97213;-76
2022/04/14 18:35:59;;;;;;;6.80;2.22;;;;;;;24.21;27.05;100631.69;20469063;28;97462;-76
2022/04/14 18:46:00;;;;;;;7.15;2.40;;;;;;;24.15;27.45;100621.66;20469106;28;97424;-74
2022/04/14 18:56:01;;;;;;;6.85;2.63;;;;;;;24.11;27.59;100628.19;20482527;28;97476;-75
2022/04/14 19:06:05;;;;;;;4.05;2.60;;;;;;;24.07;27.92;100632.91;20475745;28;97838;-75
2022/04/14 19:16:05;;;;;;;6.82;2.80;;;;;;;24.00;28.16;100633.53;20458082;28;97133;-76
2022/04/14 19:26:06;;;;;;;5.70;2.70;;;;;;;23.95;28.27;100637.44;20462097;28;97013;-76
2022/04/14 19:36:08;;;;;;;10.38;2.65;;;;;;;23.88;28.47;100646.81;20479194;28;98810;-75
2022/04/14 19:46:13;;;;;;;8.87;3.50;;;;;;;23.89;28.03;100653.78;20459299;28;97520;-79
2022/04/14 19:56:14;;;;;;;9.00;3.60;;;;;;;23.83;27.79;100654.31;20468053;28;97807;-75
2022/04/14 20:06:14;;;;;;;8.65;3.67;;;;;;;23.77;27.84;100649.53;20457927;28;97628;-74
2022/04/14 20:16:15;;;;;;;10.77;3.85;;;;;;;23.70;28.06;100645.75;20471419;28;97579;-77
2022/04/14 20:26:16;;;;;;;8.68;4.45;;;;;;;23.67;27.79;100644.19;20480423;28;97816;-76
2022/04/14 20:36:16;;;;;;;8.05;4.32;;;;;;;23.63;27.99;100640.13;20488856;28;96829;-75
2022/04/14 20:46:18;;;;;;;12.23;4.72;;;;;;;23.63;29.33;100646.25;20470528;28;97552;-76
2022/04/14 20:56:25;;;;;;;15.57;5.80;;;;;;;23.38;27.61;100657.19;20475070;28;101234;-76
2022/04/14 21:06:26;;;;;;;12.85;5.10;;;;;;;23.54;30.37;100662.06;20478362;28;98915;-75
2022/04/14 21:16:27;;;;;;;20.13;4.95;;;;;;;23.53;32.65;100666.47;20475137;28;97396;-75
2022/04/14 21:26:27;;;;;;;10.15;4.30;;;;;;;23.54;32.98;100664.69;20475370;28;100115;-74
2022/04/14 21:36:28;;;;;;;14.77;4.57;;;;;;;23.53;32.82;100665.66;20481156;28;97523;-74
2022/04/14 21:46:28;;;;;;;8.45;4.38;;;;;;;23.50;33.01;100679.97;20486994;28;99209;-74
2022/04/14 21:56:29;;;;;;;9.75;4.28;;;;;;;23.51;33.37;100673.72;20474110;28;97131;-74
2022/04/14 22:06:31;;;;;;;9.63;5.13;;;;;;;23.50;33.36;100685.25;20480053;28;97376;-77
2022/04/14 22:16:32;;;;;;;10.35;4.63;;;;;;;23.44;33.75;100678.66;20460067;28;97522;-74
2022/04/14 22:26:33;;;;;;;12.07;4.35;;;;;;;23.43;34.52;100674.34;20488249;28;97372;-74
2022/04/14 22:36:33;;;;;;;10.45;4.72;;;;;;;23.40;34.50;100673.75;20481747;28;97532;-75
2022/04/14 22:46:34;;;;;;;11.48;5.38;;;;;;;23.40;34.51;100665.81;20410305;28;97285;-75
2022/04/14 22:56:35;;;;;;;8.95;4.43;;;;;;;23.36;34.79;100661.75;20408493;28;99633;-75
2022/04/14 23:06:35;;;;;;;8.65;4.32;;;;;;;23.34;34.89;100665.38;20404446;28;98039;-75
2022/04/14 23:16:37;;;;;;;6.85;4.32;;;;;;;23.32;35.22;100656.72;20405680;28;97381;-75
2022/04/14 23:26:38;;;;;;;6.95;4.22;;;;;;;23.31;35.27;100670.06;20402084;28;97284;-75
2022/04/14 23:36:43;;;;;;;6.57;4.28;;;;;;;23.28;35.37;100660.59;20395271;28;97306;-75
2022/04/14 23:46:44;;;;;;;7.85;4.20;;;;;;;23.27;35.30;100658.09;20391219;28;103437;-75
2022/04/14 23:56:45;;;;;;;6.68;3.88;;;;;;;23.25;35.54;100655.53;20404930;28;100194;-75
